Time;durP1;ratioP1;P1;durP2;ratioP2;P2;SDS_P1;SDS_P2;PMS_P1;PMS_P2;Temp;Humidity;BMP_temperature;BMP_pressure;BME280_temperature;BME280_humidity;BME280_pressure;Samples;Min_cycle;Max_cycle;Signal;HPM_P1;HPM_P2
2022/04/05 00:01:34;;;;;;;;;;;;;;;-144.19;100.00;76421.75;5043381;28;19929;-86
2022/04/05 00:04:00;;;;;;;;;;;;;;;-144.19;100.00;76402.06;5025388;28;19929;-86
2022/04/05 00:06:27;;;;;;;;;;;;;;;-144.19;100.00;76425.69;5044981;28;19925;-87
2022/04/05 00:08:53;;;;;;;;;;;;;;;-144.19;100.00;76429.63;5043958;28;19925;-87
2022/04/05 00:11:19;;;;;;;;;;;;;;;-144.19;100.00;76421.75;5024379;28;20200;-87
2022/04/05 00:13:46;;;;;;;;;;;;;;;-144.19;100.00;76419.78;5040719;28;20296;-85
2022/04/05 00:16:12;;;;;;;;;;;;;;;-144.19;100.00;76425.69;5025623;28;20017;-87
2022/04/05 00:18:39;;;;;;;;;;;;;;;-144.19;100.00;76415.84;5018881;28;20311;-84
2022/04/05 00:23:39;;;;;;;;;;;;;;;-144.19;100.00;76433.56;5050252;28;19932;-83
2022/04/05 00:26:06;;;;;;;;;;;;;;;-144.19;100.00;76433.56;5055920;28;19924;-83
2022/04/05 00:28:33;;;;;;;;;;;;;;;-144.19;100.00;76431.59;5036559;28;19931;-83
2022/04/05 00:30:59;;;;;;;;;;;;;;;-144.19;100.00;76427.66;5049400;28;19925;-84
2022/04/05 00:33:25;;;;;;;;;;;;;;;-144.19;100.00;76417.81;5033979;28;19925;-86
2022/04/05 00:35:52;;;;;;;;;;;;;;;-144.19;100.00;76398.13;5018107;28;20032;-85
2022/04/05 00:38:18;;;;;;;;;;;;;;;-144.19;100.00;76429.63;5050773;28;19925;-82
2022/04/05 00:40:45;;;;;;;;;;;;;;;-144.19;100.00;76423.72;5017359;28;20399;-84
2022/04/05 00:43:11;;;;;;;;;;;;;;;-144.19;100.00;76433.56;5017751;28;19925;-86
2022/04/05 00:45:37;;;;;;;;;;;;;;;-144.19;100.00;76421.75;5035444;28;19925;-84
2022/04/05 00:48:04;;;;;;;;;;;;;;;-144.19;100.00;76425.69;5017937;28;19925;-83
2022/04/05 00:50:32;;;;;;;;;;;;;;;-144.19;100.00;76417.81;5018811;28;19930;-87
2022/04/05 00:53:02;;;;;;;;;;;;;;;-144.19;100.00;76411.91;5034793;28;19935;-83
2022/04/05 00:55:28;;;;;;;;;;;;;;;-144.19;100.00;76409.94;5035820;28;20020;-84
2022/04/05 00:57:57;;;;;;;;;;;;;;;-144.19;100.00;76421.75;5017857;28;19933;-84
2022/04/05 01:00:23;;;;;;;;;;;;;;;-144.19;100.00;76427.66;5013843;28;19925;-84
2022/04/05 01:02:50;;;;;;;;;;;;;;;-144.19;100.00;76421.75;5034330;28;19925;-82
2022/04/05 01:05:19;;;;;;;;;;;;;;;-144.19;100.00;76419.78;5033952;28;19931;-83
2022/04/05 01:07:47;;;;;;;;;;;;;;;-144.19;100.00;76425.69;5016961;28;19932;-83
2022/04/05 01:10:13;;;;;;;;;;;;;;;-144.19;100.00;76433.56;5032756;28;19925;-86
2022/04/05 01:12:40;;;;;;;;;;;;;;;-144.19;100.00;76425.69;5015927;28;19931;-86
2022/04/05 01:15:23;;;;;;;;;;;;;;;-144.19;100.00;76441.44;5019408;28;20294;-84
2022/04/05 01:17:51;;;;;;;;;;;;;;;-144.19;100.00;76433.56;5016748;28;19948;-85
2022/04/05 01:20:17;;;;;;;;;;;;;;;-144.19;100.00;76447.34;5033670;28;19932;-85
2022/04/05 01:22:47;;;;;;;;;;;;;;;-144.19;100.00;76433.56;5015339;28;19952;-85
2022/04/05 01:25:14;;;;;;;;;;;;;;;-144.19;100.00;76439.47;5016468;28;19925;-83
2022/04/05 01:27:41;;;;;;;;;;;;;;;-144.19;100.00;76441.44;5035136;28;19925;-86
2022/04/05 01:30:07;;;;;;;;;;;;;;;-144.19;100.00;76449.31;5033347;28;19925;-84
2022/04/05 01:32:35;;;;;;;;;;;;;;;-144.19;100.00;76459.16;5033746;28;20410;-83
2022/04/05 01:35:01;;;;;;;;;;;;;;;-144.19;100.00;76451.28;5016479;28;19925;-84
2022/04/05 01:37:28;;;;;;;;;;;;;;;-144.19;100.00;76457.19;5033742;28;19929;-85
2022/04/05 01:39:54;;;;;;;;;;;;;;;-144.19;100.00;76449.31;5033428;28;19979;-86
2022/04/05 01:42:20;;;;;;;;;;;;;;;-144.19;100.00;76445.38;5034113;28;19936;-85
2022/04/05 01:44:47;;;;;;;;;;;;;;;-144.19;100.00;76457.19;5034015;28;19931;-84
2022/04/05 01:47:15;;;;;;;;;;;;;;;-144.19;100.00;76463.09;5034935;28;19947;-84
2022/04/05 01:49:42;;;;;;;;;;;;;;;-144.19;100.00;76457.19;5015065;28;20016;-83
2022/04/05 01:52:09;;;;;;;;;;;;;;;-144.19;100.00;76457.19;5014295;28;20024;-84
2022/04/05 01:54:36;;;;;;;;;;;;;;;-144.19;100.00;76457.19;5033700;28;19929;-83
2022/04/05 01:57:03;;;;;;;;;;;;;;;-144.19;100.00;76472.94;5016502;28;19925;-85
2022/04/05 01:59:30;;;;;;;;;;;;;;;-144.19;100.00;76451.28;5029966;28;19925;-84
2022/04/05 02:01:57;;;;;;;;;;;;;;;-144.19;100.00;76437.50;5014378;28;20099;-84
2022/04/05 02:04:23;;;;;;;;;;;;;;;-144.19;100.00;76437.50;5031856;28;19925;-85
2022/04/05 02:06:50;;;;;;;;;;;;;;;-144.19;100.00;76457.19;5014824;28;19935;-84
2022/04/05 02:09:16;;;;;;;;;;;;;;;-144.19;100.00;76453.25;5015110;28;20352;-83
2022/04/05 02:11:44;;;;;;;;;;;;;;;-144.19;100.00;76465.06;5015403;28;20379;-83
2022/04/05 02:14:11;;;;;;;;;;;;;;;-144.19;100.00;76453.25;5031608;28;19925;-86
2022/04/05 02:16:37;;;;;;;;;;;;;;;-144.19;100.00;76457.19;5033587;28;19929;-83
2022/04/05 02:19:03;;;;;;;;;;;;;;;-144.19;100.00;76480.81;5015092;28;19936;-82
2022/04/05 02:21:30;;;;;;;;;;;;;;;-144.19;100.00;76472.94;5015390;28;20315;-83
2022/04/05 02:23:56;;;;;;;;;;;;;;;-144.19;100.00;76476.88;5015283;28;19925;-84
2022/04/05 02:26:22;;;;;;;;;;;;;;;-144.19;100.00;76482.78;5033333;28;20016;-84
2022/04/05 02:28:49;;;;;;;;;;;;;;;-144.19;100.00;76476.88;5015168;28;20560;-84
2022/04/05 02:31:16;;;;;;;;;;;;;;;-144.19;100.00;76492.63;5014735;28;19931;-83
2022/04/05 02:33:43;;;;;;;;;;;;;;;-144.19;100.00;76492.63;5031844;28;20000;-85
2022/04/05 02:36:10;;;;;;;;;;;;;;;-144.19;100.00;76492.63;5028354;28;19925;-85
2022/04/05 02:38:36;;;;;;;;;;;;;;;-144.19;100.00;76504.41;4996246;28;20383;-84
2022/04/05 02:41:05;;;;;;;;;;;;;;;-144.19;100.00;76522.13;5012387;28;19932;-83
2022/04/05 02:43:32;;;;;;;;;;;;;;;-144.19;100.00;76510.31;5008415;28;19925;-84
2022/04/05 02:45:58;;;;;;;;;;;;;;;-144.19;100.00;76504.41;5014756;28;19936;-85
2022/04/05 02:48:25;;;;;;;;;;;;;;;-144.19;100.00;76516.22;5014948;28;19925;-86
2022/04/05 02:50:51;;;;;;;;;;;;;;;-144.19;100.00;76492.63;5015668;28;19932;-85
2022/04/05 02:53:18;;;;;;;;;;;;;;;-144.19;100.00;76494.59;5032149;28;19925;-85
2022/04/05 02:55:45;;;;;;;;;;;;;;;-144.19;100.00;76516.22;5033158;28;19933;-84
2022/04/05 02:58:12;;;;;;;;;;;;;;;-144.19;100.00;76500.47;5015166;28;20310;-86
2022/04/05 03:00:39;;;;;;;;;;;;;;;-144.19;100.00;76514.25;5010891;28;19931;-84
2022/04/05 03:03:06;;;;;;;;;;;;;;;-144.19;100.00;76516.22;5031040;28;20426;-85
2022/04/05 03:05:32;;;;;;;;;;;;;;;-144.19;100.00;76537.88;5013608;28;19968;-82
2022/04/05 03:07:58;;;;;;;;;;;;;;;-144.19;100.00;76535.91;5014228;28;19944;-83
2022/04/05 03:10:29;;;;;;;;;;;;;;;-144.19;100.00;76535.91;5013440;28;19932;-84
2022/04/05 03:12:55;;;;;;;;;;;;;;;-144.19;100.00;76528.03;5030775;28;20315;-85
2022/04/05 03:15:22;;;;;;;;;;;;;;;-144.19;100.00;76526.06;5013149;28;20892;-86
2022/04/05 03:17:48;;;;;;;;;;;;;;;-144.19;100.00;76547.72;5014349;28;19932;-84
2022/04/05 03:20:15;;;;;;;;;;;;;;;-144.19;100.00;76555.59;5030912;28;19943;-84
2022/04/05 03:22:42;;;;;;;;;;;;;;;-144.19;100.00;76559.53;5013210;28;19932;-85
2022/04/05 03:25:10;;;;;;;;;;;;;;;-144.19;100.00;76555.59;5032421;28;20388;-84
2022/04/05 03:27:40;;;;;;;;;;;;;;;-144.19;100.00;76569.38;5013999;28;19924;-87
2022/04/05 03:30:11;;;;;;;;;;;;;;;-144.19;100.00;76569.38;5031384;28;20001;-86
2022/04/05 03:32:37;;;;;;;;;;;;;;;-144.19;100.00;76555.59;5013385;28;19932;-85
2022/04/05 03:35:04;;;;;;;;;;;;;;;-144.19;100.00;76563.47;5031309;28;19932;-84
2022/04/05 03:37:31;;;;;;;;;;;;;;;-144.19;100.00;76573.31;5013751;28;19937;-84
2022/04/05 03:39:57;;;;;;;;;;;;;;;-144.19;100.00;76563.47;5031049;28;20367;-83
2022/04/05 03:42:24;;;;;;;;;;;;;;;-144.19;100.00;76567.41;5012682;28;19940;-87
2022/04/05 03:44:50;;;;;;;;;;;;;;;-144.19;100.00;76577.25;5031889;28;19972;-84
2022/04/05 03:47:17;;;;;;;;;;;;;;;-144.19;100.00;76567.41;5031116;28;19962;-84
2022/04/05 03:49:43;;;;;;;;;;;;;;;-144.19;100.00;76571.34;5031035;28;19925;-86
2022/04/05 03:52:10;;;;;;;;;;;;;;;-144.19;100.00;76587.09;5029900;28;19976;-84
2022/04/05 03:54:36;;;;;;;;;;;;;;;-144.19;100.00;76563.47;5013259;28;19936;-84
2022/04/05 03:57:03;;;;;;;;;;;;;;;-144.19;100.00;76579.22;5014487;28;19951;-85
2022/04/05 03:59:29;;;;;;;;;;;;;;;-144.19;100.00;76571.34;5028304;28;19925;-85
2022/04/05 04:01:55;;;;;;;;;;;;;;;-144.19;100.00;76583.16;5016913;28;20391;-84
2022/04/05 04:04:22;;;;;;;;;;;;;;;-144.19;100.00;76575.28;5035795;28;19925;-84
2022/04/05 04:06:48;;;;;;;;;;;;;;;-144.19;100.00;76581.19;5036572;28;19929;-83
2022/04/05 04:09:14;;;;;;;;;;;;;;;-144.19;100.00;76581.19;5034860;28;20348;-85
2022/04/05 04:11:41;;;;;;;;;;;;;;;-144.19;100.00;76583.16;5024966;28;19936;-87
2022/04/05 04:14:07;;;;;;;;;;;;;;;-144.19;100.00;76569.38;5016742;28;19955;-86
2022/04/05 04:16:34;;;;;;;;;;;;;;;-144.19;100.00;76575.28;5035310;28;19925;-85
2022/04/05 04:19:00;;;;;;;;;;;;;;;-144.19;100.00;76573.31;5034781;28;19932;-84
2022/04/05 04:21:26;;;;;;;;;;;;;;;-144.19;100.00;76559.53;5035156;28;19932;-86
2022/04/05 04:23:53;;;;;;;;;;;;;;;-144.19;100.00;76565.44;5016538;28;19960;-86
2022/04/05 04:26:19;;;;;;;;;;;;;;;-144.19;100.00;76563.47;5050519;28;19932;-86
2022/04/05 04:28:47;;;;;;;;;;;;;;;-144.19;100.00;76571.34;5030899;28;19933;-85
2022/04/05 04:31:14;;;;;;;;;;;;;;;-144.19;100.00;76581.19;5017180;28;19925;-85
2022/04/05 04:33:41;;;;;;;;;;;;;;;-144.19;100.00;76579.22;5031591;28;19932;-87
2022/04/05 04:36:07;;;;;;;;;;;;;;;-144.19;100.00;76585.13;5015050;28;19926;-84
2022/04/05 04:38:33;;;;;;;;;;;;;;;-144.19;100.00;76587.09;5014880;28;19926;-83
2022/04/05 04:41:00;;;;;;;;;;;;;;;-144.19;100.00;76583.16;5014406;28;19937;-85
2022/04/05 04:43:27;;;;;;;;;;;;;;;-144.19;100.00;76579.22;5013994;28;19973;-83
2022/04/05 04:45:59;;;;;;;;;;;;;;;-144.19;100.00;76587.09;5016197;28;20024;-83
2022/04/05 04:48:25;;;;;;;;;;;;;;;-144.19;100.00;76585.13;5030490;28;19925;-87
2022/04/05 04:50:51;;;;;;;;;;;;;;;-144.19;100.00;76593.00;5015821;28;19925;-84
2022/04/05 04:53:18;;;;;;;;;;;;;;;-144.19;100.00;76594.97;5048953;28;20422;-85
2022/04/05 04:55:45;;;;;;;;;;;;;;;-144.19;100.00;76602.84;5034272;28;20383;-84
2022/04/05 04:58:28;;;;;;;;;;;;;;;-144.19;100.00;76598.91;5019356;28;20380;-83
2022/04/05 05:00:54;;;;;;;;;;;;;;;-144.19;100.00;76581.19;5031586;28;19931;-86
2022/04/05 05:03:21;;;;;;;;;;;;;;;-144.19;100.00;76606.78;5015996;28;19932;-83
2022/04/05 05:05:48;;;;;;;;;;;;;;;-144.19;100.00;76600.88;5033825;28;20433;-84
2022/04/05 05:08:14;;;;;;;;;;;;;;;-144.19;100.00;76596.94;5033882;28;20019;-85
2022/04/05 05:10:40;;;;;;;;;;;;;;;-144.19;100.00;76604.81;5033379;28;19925;-85
2022/04/05 05:13:08;;;;;;;;;;;;;;;-144.19;100.00;76594.97;5015447;28;20330;-84
2022/04/05 05:15:34;;;;;;;;;;;;;;;-144.19;100.00;76591.03;5033893;28;20303;-86
2022/04/05 05:18:00;;;;;;;;;;;;;;;-144.19;100.00;76591.03;5016288;28;19925;-87
2022/04/05 05:20:27;;;;;;;;;;;;;;;-144.19;100.00;76606.78;5015048;28;19952;-84
2022/04/05 05:22:53;;;;;;;;;;;;;;;-144.19;100.00;76604.81;5033016;28;19925;-83
2022/04/05 05:25:19;;;;;;;;;;;;;;;-144.19;100.00;76598.91;5033744;28;20392;-84
2022/04/05 05:27:46;;;;;;;;;;;;;;;-144.19;100.00;76594.97;5014013;28;19929;-84
2022/04/05 05:30:12;;;;;;;;;;;;;;;-144.19;100.00;76600.88;5031697;28;19929;-82
2022/04/05 05:32:46;;;;;;;;;;;;;;;-144.19;100.00;76587.09;5032098;28;19976;-85
2022/04/05 05:35:16;;;;;;;;;;;;;;;-144.19;100.00;76583.16;5019098;28;19931;-84
2022/04/05 05:37:42;;;;;;;;;;;;;;;-144.19;100.00;76583.16;5013845;28;19932;-84
2022/04/05 05:40:09;;;;;;;;;;;;;;;-144.19;100.00;76589.06;5013329;28;19933;-84
2022/04/05 05:42:45;;;;;;;;;;;;;;;-144.19;100.00;76589.06;4995306;28;20438;-85
2022/04/05 05:45:12;;;;;;;;;;;;;;;-144.19;100.00;76583.16;5009768;28;19925;-86
2022/04/05 05:47:38;;;;;;;;;;;;;;;-144.19;100.00;76587.09;5015647;28;19940;-87
2022/04/05 05:50:05;;;;;;;;;;;;;;;-144.19;100.00;76596.94;5032466;28;19932;-86
2022/04/05 05:52:31;;;;;;;;;;;;;;;-144.19;100.00;76591.03;5032458;28;19925;-83
2022/04/05 05:54:57;;;;;;;;;;;;;;;-144.19;100.00;76594.97;5033056;28;19932;-84
2022/04/05 05:57:23;;;;;;;;;;;;;;;-144.19;100.00;76594.97;5015702;28;19925;-84
2022/04/05 05:59:50;;;;;;;;;;;;;;;-144.19;100.00;76593.00;5012783;28;19992;-85
2022/04/05 06:02:16;;;;;;;;;;;;;;;-144.19;100.00;76585.13;5032976;28;20307;-84
2022/04/05 06:04:42;;;;;;;;;;;;;;;-144.19;100.00;76573.31;5031504;28;19933;-84
2022/04/05 06:07:09;;;;;;;;;;;;;;;-144.19;100.00;76579.22;5033865;28;19999;-86
2022/04/05 06:09:35;;;;;;;;;;;;;;;-144.19;100.00;76598.91;5033210;28;19932;-83
2022/04/05 06:12:02;;;;;;;;;;;;;;;-144.19;100.00;76573.31;5031701;28;20321;-84
2022/04/05 06:14:28;;;;;;;;;;;;;;;-144.19;100.00;76598.91;5032644;28;19933;-85
2022/04/05 06:16:55;;;;;;;;;;;;;;;-144.19;100.00;76575.28;5031062;28;19992;-87
2022/04/05 06:19:21;;;;;;;;;;;;;;;-144.19;100.00;76571.34;5047868;28;19925;-88
2022/04/05 06:21:47;;;;;;;;;;;;;;;-144.19;100.00;76581.19;5032024;28;19925;-86
2022/04/05 06:24:14;;;;;;;;;;;;;;;-144.19;100.00;76563.47;5031221;28;20036;-86
2022/04/05 06:26:40;;;;;;;;;;;;;;;-144.19;100.00;76563.47;5032620;28;20011;-85
2022/04/05 06:29:06;;;;;;;;;;;;;;;-144.19;100.00;76563.47;5032270;28;19925;-85
2022/04/05 06:31:33;;;;;;;;;;;;;;;-144.19;100.00;76567.41;5031284;28;19932;-84
2022/04/05 06:34:02;;;;;;;;;;;;;;;-144.19;100.00;76555.59;5013721;28;20058;-85
2022/04/05 06:36:29;;;;;;;;;;;;;;;-144.19;100.00;76559.53;5032081;28;19944;-84
2022/04/05 06:38:55;;;;;;;;;;;;;;;-144.19;100.00;76551.66;5031934;28;19925;-87
2022/04/05 06:41:22;;;;;;;;;;;;;;;-144.19;100.00;76533.94;5031723;28;20406;-86
2022/04/05 06:43:48;;;;;;;;;;;;;;;-144.19;100.00;76551.66;5025824;28;19931;-85
2022/04/05 06:46:15;;;;;;;;;;;;;;;-144.19;100.00;76545.75;5031384;28;20310;-87
2022/04/05 06:48:42;;;;;;;;;;;;;;;-144.19;100.00;76520.16;5031819;28;19932;-86
2022/04/05 06:51:08;;;;;;;;;;;;;;;-144.19;100.00;76531.97;5014100;28;19925;-87
2022/04/05 06:53:40;;;;;;;;;;;;;;;-144.19;100.00;76504.41;5013888;28;19991;-83
2022/04/05 06:56:09;;;;;;;;;;;;;;;-144.19;100.00;76488.69;5021110;28;20415;-82
2022/04/05 06:58:35;;;;;;;;;;;;;;;-144.19;100.00;76512.28;5009040;28;19925;-85
2022/04/05 07:01:01;;;;;;;;;;;;;;;-144.19;100.00;76496.53;5028732;28;19972;-86
2022/04/05 07:03:28;;;;;;;;;;;;;;;-144.19;100.00;76486.72;5013425;28;19929;-84
2022/04/05 07:06:00;;;;;;;;;;;;;;;-144.19;100.00;76488.69;5031923;28;19925;-85
2022/04/05 07:08:26;;;;;;;;;;;;;;;-144.19;100.00;76488.69;5030040;28;19929;-85
2022/04/05 07:10:53;;;;;;;;;;;;;;;-144.19;100.00;76498.50;5030857;28;19940;-84
2022/04/05 07:13:19;;;;;;;;;;;;;;;-144.19;100.00;76492.63;5030874;28;19929;-85
2022/04/05 07:15:46;;;;;;;;;;;;;;;-144.19;100.00;76486.72;5013465;28;19933;-85
2022/04/05 07:18:12;;;;;;;;;;;;;;;-144.19;100.00;76492.63;5030157;28;19925;-84
2022/04/05 07:20:39;;;;;;;;;;;;;;;-144.19;100.00;76476.88;5013124;28;19931;-85
2022/04/05 07:23:05;;;;;;;;;;;;;;;-144.19;100.00;76488.69;5029730;28;19925;-84
2022/04/05 07:25:35;;;;;;;;;;;;;;;-144.19;100.00;76492.63;5014103;28;20457;-86
2022/04/05 07:28:02;;;;;;;;;;;;;;;-144.19;100.00;76472.94;5014048;28;19925;-87
2022/04/05 07:30:29;;;;;;;;;;;;;;;-144.19;100.00;76467.03;5030241;28;20063;-86
2022/04/05 07:32:55;;;;;;;;;;;;;;;-144.19;100.00;76474.91;5012251;28;19929;-84
2022/04/05 07:35:21;;;;;;;;;;;;;;;-144.19;100.00;76461.13;5015676;28;19926;-84
2022/04/05 07:37:48;;;;;;;;;;;;;;;-144.19;100.00;76467.03;4993567;28;20040;-85
2022/04/05 07:40:14;;;;;;;;;;;;;;;-144.19;100.00;76453.25;5001293;28;19925;-87
2022/04/05 07:42:42;;;;;;;;;;;;;;;-144.19;100.00;76469.00;5012971;28;19932;-88
2022/04/05 07:45:09;;;;;;;;;;;;;;;-144.19;100.00;76459.16;5029004;28;20032;-86
2022/04/05 07:47:36;;;;;;;;;;;;;;;-144.19;100.00;76449.31;5029506;28;19931;-87
2022/04/05 07:50:03;;;;;;;;;;;;;;;-144.19;100.00;76465.06;5022303;28;19929;-82
2022/04/05 07:52:29;;;;;;;;;;;;;;;-144.19;100.00;76453.25;5029797;28;19947;-85
2022/04/05 07:54:55;;;;;;;;;;;;;;;-144.19;100.00;76441.44;5012282;28;20264;-83
2022/04/05 07:57:22;;;;;;;;;;;;;;;-144.19;100.00;76453.25;5012997;28;19925;-86
2022/04/05 07:59:48;;;;;;;;;;;;;;;-144.19;100.00;76445.38;5020334;28;19929;-83
2022/04/05 08:02:14;;;;;;;;;;;;;;;-144.19;100.00;76478.84;5028161;28;19929;-83
2022/04/05 08:04:54;;;;;;;;;;;;;;;-144.19;100.00;76431.59;5012998;28;19929;-85
2022/04/05 08:07:20;;;;;;;;;;;;;;;-144.19;100.00;76427.66;5013342;28;19925;-84
2022/04/05 08:09:46;;;;;;;;;;;;;;;-144.19;100.00;76429.63;5026427;28;19933;-82
2022/04/05 08:12:13;;;;;;;;;;;;;;;-144.19;100.00;76421.75;5029861;28;19937;-83
2022/04/05 08:14:39;;;;;;;;;;;;;;;-144.19;100.00;76409.94;5029896;28;19925;-86
2022/04/05 08:17:06;;;;;;;;;;;;;;;-144.19;100.00;76417.81;5029916;28;19932;-83
2022/04/05 08:19:32;;;;;;;;;;;;;;;-144.19;100.00;76433.56;5030847;28;19929;-86
2022/04/05 08:21:58;;;;;;;;;;;;;;;-144.19;100.00;76398.13;5031866;28;19925;-83
2022/04/05 08:24:25;;;;;;;;;;;;;;;-144.19;100.00;76417.81;5027601;28;19932;-84
2022/04/05 08:26:51;;;;;;;;;;;;;;;-144.19;100.00;76396.16;5030544;28;20352;-84
2022/04/05 08:29:17;;;;;;;;;;;;;;;-144.19;100.00;76362.69;5011367;28;20387;-86
2022/04/05 08:31:44;;;;;;;;;;;;;;;-144.19;100.00;76406.00;5011282;28;19925;-85
2022/04/05 08:34:11;;;;;;;;;;;;;;;-144.19;100.00;76358.75;5026070;28;19925;-84
2022/04/05 08:36:37;;;;;;;;;;;;;;;-144.19;100.00;76339.09;5011972;28;19925;-84
2022/04/05 08:39:03;;;;;;;;;;;;;;;-144.19;100.00;76335.16;5029089;28;19925;-84
2022/04/05 08:41:35;;;;;;;;;;;;;;;-144.19;100.00;76335.16;5029302;28;19962;-86
2022/04/05 08:44:02;;;;;;;;;;;;;;;-144.19;100.00;76339.09;5030305;28;19925;-86
2022/04/05 08:46:32;;;;;;;;;;;;;;;-144.19;100.00;76339.09;5015188;28;19945;-86
2022/04/05 08:48:59;;;;;;;;;;;;;;;-144.19;100.00;76321.38;5016660;28;19925;-84
2022/04/05 08:51:25;;;;;;;;;;;;;;;-144.19;100.00;76346.94;5011934;28;19929;-87
2022/04/05 08:53:52;;;;;;;;;;;;;;;-144.19;100.00;76317.44;5024035;28;19929;-84
2022/04/05 08:56:18;;;;;;;;;;;;;;;-144.19;100.00;76319.41;5016530;28;20406;-85
2022/04/05 08:58:44;;;;;;;;;;;;;;;-144.19;100.00;76323.34;5016678;28;19925;-83
2022/04/05 09:01:11;;;;;;;;;;;;;;;-144.19;100.00;76348.91;5032523;28;19929;-85
2022/04/05 09:03:37;;;;;;;;;;;;;;;-144.19;100.00;76350.88;5030034;28;19937;-83
2022/04/05 09:06:22;;;;;;;;;;;;;;;-144.19;100.00;76360.72;5024468;28;19925;-83
2022/04/05 09:08:49;;;;;;;;;;;;;;;-144.19;100.00;76378.44;5041986;28;19925;-85
2022/04/05 09:11:20;;;;;;;;;;;;;;;-144.19;100.00;76382.38;5013083;28;19940;-84
2022/04/05 09:13:59;;;;;;;;;;;;;;;-144.19;100.00;76376.47;5033479;28;20011;-84
2022/04/05 09:16:30;;;;;;;;;;;;;;;-144.19;100.00;76329.25;5027996;28;19932;-84
2022/04/05 09:18:57;;;;;;;;;;;;;;;-144.19;100.00;76323.34;5031697;28;19925;-84
2022/04/05 09:21:23;;;;;;;;;;;;;;;-144.19;100.00;76343.03;5014149;28;19932;-82
2022/04/05 09:23:52;;;;;;;;;;;;;;;-144.19;100.00;76344.97;5013009;28;19943;-85
2022/04/05 09:26:19;;;;;;;;;;;;;;;-144.19;100.00;76384.34;5032285;28;19925;-83
2022/04/05 09:28:49;;;;;;;;;;;;;;;-144.19;100.00;76362.69;5033244;28;19933;-84
2022/04/05 09:31:17;;;;;;;;;;;;;;;-144.19;100.00;76348.91;5032184;28;19929;-85
2022/04/05 09:34:00;;;;;;;;;;;;;;;-144.19;100.00;76352.84;5030694;28;19964;-84
2022/04/05 09:36:34;;;;;;;;;;;;;;;-144.19;100.00;76350.88;5012790;28;19932;-83
2022/04/05 09:39:10;;;;;;;;;;;;;;;-144.19;100.00;76339.09;5030564;28;19925;-84
2022/04/05 09:41:36;;;;;;;;;;;;;;;-144.19;100.00;76339.09;5016574;28;19925;-85
2022/04/05 09:44:03;;;;;;;;;;;;;;;-144.19;100.00;76299.72;5032289;28;20409;-84
2022/04/05 09:46:29;;;;;;;;;;;;;;;-144.19;100.00;76344.97;5015286;28;20599;-83
2022/04/05 09:49:07;;;;;;;;;;;;;;;-144.19;100.00;76333.19;5014022;28;19953;-84
2022/04/05 09:51:34;;;;;;;;;;;;;;;-144.19;100.00;76335.16;5030027;28;19954;-83
2022/04/05 09:54:01;;;;;;;;;;;;;;;-144.19;100.00;76325.31;5030730;28;20043;-84
2022/04/05 09:56:31;;;;;;;;;;;;;;;-144.19;100.00;76307.59;5032660;28;19925;-83
2022/04/05 09:59:04;;;;;;;;;;;;;;;-144.19;100.00;76315.47;5029285;28;19932;-82
2022/04/05 10:01:32;;;;;;;;;;;;;;;-144.19;100.00;76297.75;5029970;28;19925;-82
2022/04/05 10:04:10;;;;;;;;;;;;;;;-144.19;100.00;76307.59;5006609;28;19953;-82
2022/04/05 10:06:43;;;;;;;;;;;;;;;-144.19;100.00;76287.91;5021785;28;20302;-82
2022/04/05 10:09:10;;;;;;;;;;;;;;;-144.19;100.00;76280.03;5027957;28;19925;-83
2022/04/05 10:11:38;;;;;;;;;;;;;;;-144.19;100.00;76280.03;5011807;28;20103;-83
2022/04/05 10:14:05;;;;;;;;;;;;;;;-144.19;100.00;76283.97;5022344;28;19928;-83
2022/04/05 10:16:32;;;;;;;;;;;;;;;-144.19;100.00;76276.09;5015223;28;19932;-85
2022/04/05 10:19:08;;;;;;;;;;;;;;;-144.19;100.00;76254.44;5016957;28;19925;-82
2022/04/05 10:21:35;;;;;;;;;;;;;;;-144.19;100.00;76266.25;5026651;28;19977;-86
2022/04/05 10:24:06;;;;;;;;;;;;;;;-144.19;100.00;76268.22;5015528;28;19955;-87
2022/04/05 10:26:34;;;;;;;;;;;;;;;-144.19;100.00;76283.97;5033265;28;19925;-82
2022/04/05 10:29:03;;;;;;;;;;;;;;;-144.19;100.00;76252.47;5034981;28;20005;-82
2022/04/05 10:31:32;;;;;;;;;;;;;;;-144.19;100.00;76260.34;5012598;28;20008;-83
2022/04/05 10:34:05;;;;;;;;;;;;;;;-144.19;100.00;76262.31;5029453;28;19956;-83
2022/04/05 10:36:32;;;;;;;;;;;;;;;-144.19;100.00;76252.47;5015495;28;19925;-85
2022/04/05 10:39:18;;;;;;;;;;;;;;;-144.19;100.00;76291.84;5027067;28;19929;-83
2022/04/05 10:42:04;;;;;;;;;;;;;;;-144.19;100.00;76293.81;5014119;28;19929;-82
2022/04/05 10:44:30;;;;;;;;;;;;;;;-144.19;100.00;76289.88;5027401;28;19925;-83
2022/04/05 10:46:58;;;;;;;;;;;;;;;-144.19;100.00;76272.16;5010140;28;19926;-80
2022/04/05 10:49:49;;;;;;;;;;;;;;;-144.19;100.00;76283.97;5028506;28;19933;-82
2022/04/05 10:52:23;;;;;;;;;;;;;;;-144.19;100.00;76295.78;5023436;28;20542;-81
2022/04/05 10:54:51;;;;;;;;;;;;;;;-144.19;100.00;76297.75;5029913;28;19925;-80
2022/04/05 10:57:17;;;;;;;;;;;;;;;-144.19;100.00;76291.84;5012937;28;19979;-82
2022/04/05 10:59:48;;;;;;;;;;;;;;;-144.19;100.00;76260.34;5028393;28;20007;-83
2022/04/05 11:02:30;;;;;;;;;;;;;;;-144.19;100.00;76291.84;5025148;28;20662;-82
2022/04/05 11:05:15;;;;;;;;;;;;;;;-144.19;100.00;76260.34;5036033;28;19973;-82
2022/04/05 11:07:53;;;;;;;;;;;;;;;-144.19;100.00;76270.19;5023873;28;19925;-82
2022/04/05 11:10:20;;;;;;;;;;;;;;;-144.19;100.00;76264.28;5025005;28;19929;-81
2022/04/05 11:12:47;;;;;;;;;;;;;;;-144.19;100.00;76260.34;5006368;28;20371;-83
2022/04/05 11:15:14;;;;;;;;;;;;;;;-144.19;100.00;76256.41;5009639;28;20097;-81
2022/04/05 11:17:41;;;;;;;;;;;;;;;-144.19;100.00;76254.44;5026352;28;19925;-83
2022/04/05 11:20:08;;;;;;;;;;;;;;;-144.19;100.00;76278.06;5038588;28;19926;-82
2022/04/05 11:22:36;;;;;;;;;;;;;;;-144.19;100.00;76268.22;5023565;28;19932;-84
2022/04/05 11:25:05;;;;;;;;;;;;;;;-144.19;100.00;76232.78;5006822;28;19949;-81
2022/04/05 11:27:34;;;;;;;;;;;;;;;-144.19;100.00;76213.13;5025779;28;19929;-81
2022/04/05 11:30:19;;;;;;;;;;;;;;;-144.19;100.00;76215.09;5022735;28;19925;-81
2022/04/05 11:33:04;;;;;;;;;;;;;;;-144.19;100.00;76193.44;5029574;28;19932;-83
2022/04/05 11:35:45;;;;;;;;;;;;;;;-144.19;100.00;76189.50;5028520;28;19925;-83
2022/04/05 11:38:17;;;;;;;;;;;;;;;-144.19;100.00;76215.09;5014525;28;20028;-82
2022/04/05 11:40:51;;;;;;;;;;;;;;;-144.19;100.00;76165.88;5031929;28;20422;-82
2022/04/05 11:43:19;;;;;;;;;;;;;;;-144.19;100.00;76159.97;5042552;28;19929;-83
2022/04/05 11:45:46;;;;;;;;;;;;;;;-144.19;100.00;76134.38;5011677;28;19929;-84
2022/04/05 11:48:14;;;;;;;;;;;;;;;-144.19;100.00;76108.78;5014568;28;20012;-83
2022/04/05 11:50:40;;;;;;;;;;;;;;;-144.19;100.00;76098.97;5023656;28;19925;-84
2022/04/05 11:53:20;;;;;;;;;;;;;;;-144.19;100.00;76091.09;5045957;28;19925;-84
2022/04/05 11:56:06;;;;;;;;;;;;;;;-144.19;100.00;76098.97;5031373;28;20002;-82
2022/04/05 11:58:34;;;;;;;;;;;;;;;-144.19;100.00;76098.97;5011808;28;19932;-82
2022/04/05 12:01:03;;;;;;;;;;;;;;;-144.19;100.00;76073.38;5014423;28;19925;-83
2022/04/05 12:03:30;;;;;;;;;;;;;;;-144.19;100.00;76032.03;5039298;28;19929;-81
2022/04/05 12:05:56;;;;;;;;;;;;;;;-144.19;100.00;75978.91;5028421;28;20020;-83
2022/04/05 12:08:23;;;;;;;;;;;;;;;-144.19;100.00;75967.09;5031702;28;20054;-84
2022/04/05 12:10:49;;;;;;;;;;;;;;;-144.19;100.00;75949.38;5031806;28;19947;-83
2022/04/05 12:13:25;;;;;;;;;;;;;;;-144.19;100.00;75904.13;5014191;28;19925;-80
2022/04/05 12:15:56;;;;;;;;;;;;;;;-144.19;100.00;75898.22;5014469;28;20436;-86
2022/04/05 12:18:24;;;;;;;;;;;;;;;-144.19;100.00;75858.84;5012267;28;19925;-81
2022/04/05 12:20:54;;;;;;;;;;;;;;;-144.19;100.00;75833.25;5053348;23;20270;-85
2022/04/05 12:23:21;;;;;;;;;;;;;;;-144.19;100.00;75872.63;5052960;28;19939;-84
2022/04/05 12:26:06;;;;;;;;;;;;;;;-144.19;100.00;75850.97;5053297;28;20385;-85